sensor_id;sensor_type;location;lat;lon;timestamp;P1;durP1;ratioP1;P2;durP2;ratioP2
7295;SDS011;40758;54.038;11.684;2023-04-24T00:02:07;6.63;;;3.67;;
7295;SDS011;40758;54.038;11.684;2023-04-24T00:04:37;7.70;;;4.20;;
7295;SDS011;40758;54.038;11.684;2023-04-24T00:07:06;7.40;;;4.22;;
7295;SDS011;40758;54.038;11.684;2023-04-24T00:09:33;6.85;;;3.75;;
7295;SDS011;40758;54.038;11.684;2023-04-24T00:12:00;6.47;;;3.60;;
7295;SDS011;40758;54.038;11.684;2023-04-24T00:14:30;5.70;;;3.05;;
7295;SDS011;40758;54.038;11.684;2023-04-24T00:16:57;6.40;;;2.83;;
7295;SDS011;40758;54.038;11.684;2023-04-24T00:19:24;5.93;;;3.40;;
7295;SDS011;40758;54.038;11.684;2023-04-24T00:21:51;6.85;;;3.80;;
7295;SDS011;40758;54.038;11.684;2023-04-24T00:24:17;7.60;;;5.45;;
7295;SDS011;40758;54.038;11.684;2023-04-24T00:26:46;5.95;;;3.15;;
7295;SDS011;40758;54.038;11.684;2023-04-24T00:29:13;6.28;;;3.60;;
7295;SDS011;40758;54.038;11.684;2023-04-24T00:31:40;6.57;;;2.97;;
7295;SDS011;40758;54.038;11.684;2023-04-24T00:34:06;7.18;;;3.47;;
7295;SDS011;40758;54.038;11.684;2023-04-24T00:36:34;6.20;;;3.13;;
7295;SDS011;40758;54.038;11.684;2023-04-24T00:39:00;5.78;;;3.10;;
7295;SDS011;40758;54.038;11.684;2023-04-24T00:41:27;6.30;;;3.70;;
7295;SDS011;40758;54.038;11.684;2023-04-24T00:43:54;5.70;;;3.13;;
7295;SDS011;40758;54.038;11.684;2023-04-24T00:46:21;6.65;;;4.13;;
7295;SDS011;40758;54.038;11.684;2023-04-24T00:48:48;4.85;;;2.70;;
7295;SDS011;40758;54.038;11.684;2023-04-24T00:51:20;5.70;;;2.78;;
7295;SDS011;40758;54.038;11.684;2023-04-24T00:53:47;5.05;;;2.83;;
7295;SDS011;40758;54.038;11.684;2023-04-24T00:56:15;7.15;;;2.20;;
7295;SDS011;40758;54.038;11.684;2023-04-24T00:58:42;6.47;;;3.08;;
7295;SDS011;40758;54.038;11.684;2023-04-24T01:01:09;6.75;;;3.15;;
7295;SDS011;40758;54.038;11.684;2023-04-24T01:06:05;4.88;;;2.55;;
7295;SDS011;40758;54.038;11.684;2023-04-24T01:08:31;5.50;;;3.65;;
7295;SDS011;40758;54.038;11.684;2023-04-24T01:11:00;5.80;;;4.82;;
7295;SDS011;40758;54.038;11.684;2023-04-24T01:13:29;4.40;;;2.15;;
7295;SDS011;40758;54.038;11.684;2023-04-24T01:15:58;4.95;;;2.88;;
7295;SDS011;40758;54.038;11.684;2023-04-24T01:18:25;4.72;;;2.25;;
7295;SDS011;40758;54.038;11.684;2023-04-24T01:20:53;4.57;;;2.35;;
7295;SDS011;40758;54.038;11.684;2023-04-24T01:23:22;5.38;;;2.60;;
7295;SDS011;40758;54.038;11.684;2023-04-24T01:25:50;4.43;;;2.42;;
7295;SDS011;40758;54.038;11.684;2023-04-24T01:28:18;5.18;;;2.42;;
7295;SDS011;40758;54.038;11.684;2023-04-24T01:30:45;5.18;;;2.60;;
7295;SDS011;40758;54.038;11.684;2023-04-24T01:33:12;6.22;;;3.70;;
7295;SDS011;40758;54.038;11.684;2023-04-24T01:35:39;4.97;;;2.67;;
7295;SDS011;40758;54.038;11.684;2023-04-24T01:38:06;4.82;;;2.95;;
7295;SDS011;40758;54.038;11.684;2023-04-24T01:40:33;4.47;;;2.00;;
7295;SDS011;40758;54.038;11.684;2023-04-24T01:43:00;5.80;;;3.00;;
7295;SDS011;40758;54.038;11.684;2023-04-24T01:45:27;4.97;;;2.70;;
7295;SDS011;40758;54.038;11.684;2023-04-24T01:47:53;6.50;;;3.30;;
7295;SDS011;40758;54.038;11.684;2023-04-24T01:50:20;5.70;;;2.92;;
7295;SDS011;40758;54.038;11.684;2023-04-24T01:52:48;5.22;;;3.25;;
7295;SDS011;40758;54.038;11.684;2023-04-24T01:55:17;6.20;;;3.20;;
7295;SDS011;40758;54.038;11.684;2023-04-24T01:57:44;7.30;;;3.28;;
7295;SDS011;40758;54.038;11.684;2023-04-24T02:00:10;4.97;;;2.85;;
7295;SDS011;40758;54.038;11.684;2023-04-24T02:02:41;5.47;;;2.78;;
7295;SDS011;40758;54.038;11.684;2023-04-24T02:05:12;4.00;;;2.45;;
7295;SDS011;40758;54.038;11.684;2023-04-24T02:07:39;5.07;;;2.03;;
7295;SDS011;40758;54.038;11.684;2023-04-24T02:10:06;5.03;;;3.38;;
7295;SDS011;40758;54.038;11.684;2023-04-24T02:12:33;6.03;;;2.13;;
7295;SDS011;40758;54.038;11.684;2023-04-24T02:15:00;4.38;;;2.58;;
7295;SDS011;40758;54.038;11.684;2023-04-24T02:17:26;4.55;;;2.53;;
7295;SDS011;40758;54.038;11.684;2023-04-24T02:19:54;4.45;;;2.80;;
7295;SDS011;40758;54.038;11.684;2023-04-24T02:22:21;4.88;;;2.33;;
7295;SDS011;40758;54.038;11.684;2023-04-24T02:24:48;5.45;;;2.35;;
7295;SDS011;40758;54.038;11.684;2023-04-24T02:27:17;4.25;;;1.95;;
7295;SDS011;40758;54.038;11.684;2023-04-24T02:29:47;5.85;;;3.55;;
7295;SDS011;40758;54.038;11.684;2023-04-24T02:32:13;5.95;;;2.63;;
7295;SDS011;40758;54.038;11.684;2023-04-24T02:37:08;5.35;;;2.40;;
7295;SDS011;40758;54.038;11.684;2023-04-24T02:39:36;5.43;;;3.38;;
7295;SDS011;40758;54.038;11.684;2023-04-24T02:42:03;5.68;;;3.08;;
7295;SDS011;40758;54.038;11.684;2023-04-24T02:44:29;6.10;;;3.50;;
7295;SDS011;40758;54.038;11.684;2023-04-24T02:46:56;5.35;;;2.63;;
7295;SDS011;40758;54.038;11.684;2023-04-24T02:49:23;5.78;;;3.30;;
7295;SDS011;40758;54.038;11.684;2023-04-24T02:51:50;7.03;;;2.90;;
7295;SDS011;40758;54.038;11.684;2023-04-24T02:54:17;7.80;;;3.20;;
7295;SDS011;40758;54.038;11.684;2023-04-24T02:56:44;6.82;;;5.30;;
7295;SDS011;40758;54.038;11.684;2023-04-24T02:59:11;6.00;;;3.67;;
7295;SDS011;40758;54.038;11.684;2023-04-24T03:01:37;6.25;;;3.58;;
7295;SDS011;40758;54.038;11.684;2023-04-24T03:04:04;6.22;;;3.90;;
7295;SDS011;40758;54.038;11.684;2023-04-24T03:06:31;5.25;;;3.33;;
7295;SDS011;40758;54.038;11.684;2023-04-24T03:08:59;8.05;;;3.78;;
7295;SDS011;40758;54.038;11.684;2023-04-24T03:11:26;6.10;;;3.60;;
7295;SDS011;40758;54.038;11.684;2023-04-24T03:13:52;7.53;;;3.78;;
7295;SDS011;40758;54.038;11.684;2023-04-24T03:16:22;6.38;;;2.97;;
7295;SDS011;40758;54.038;11.684;2023-04-24T03:18:52;6.68;;;3.40;;
7295;SDS011;40758;54.038;11.684;2023-04-24T03:21:18;7.65;;;3.33;;
7295;SDS011;40758;54.038;11.684;2023-04-24T03:23:46;6.15;;;3.30;;
7295;SDS011;40758;54.038;11.684;2023-04-24T03:26:13;8.13;;;4.95;;
7295;SDS011;40758;54.038;11.684;2023-04-24T03:28:40;6.05;;;3.53;;
7295;SDS011;40758;54.038;11.684;2023-04-24T03:31:07;6.72;;;5.22;;
7295;SDS011;40758;54.038;11.684;2023-04-24T03:33:33;6.65;;;3.55;;
7295;SDS011;40758;54.038;11.684;2023-04-24T03:36:00;6.13;;;3.22;;
7295;SDS011;40758;54.038;11.684;2023-04-24T03:38:27;6.85;;;3.60;;
7295;SDS011;40758;54.038;11.684;2023-04-24T03:40:53;8.13;;;3.97;;
7295;SDS011;40758;54.038;11.684;2023-04-24T03:43:20;5.60;;;3.35;;
7295;SDS011;40758;54.038;11.684;2023-04-24T03:45:47;6.47;;;3.70;;
7295;SDS011;40758;54.038;11.684;2023-04-24T03:48:13;6.20;;;4.03;;
7295;SDS011;40758;54.038;11.684;2023-04-24T03:50:41;6.13;;;3.67;;
7295;SDS011;40758;54.038;11.684;2023-04-24T03:53:08;7.63;;;6.10;;
7295;SDS011;40758;54.038;11.684;2023-04-24T03:55:34;7.18;;;4.50;;
7295;SDS011;40758;54.038;11.684;2023-04-24T03:58:01;6.50;;;3.20;;
7295;SDS011;40758;54.038;11.684;2023-04-24T04:00:28;6.78;;;3.17;;
7295;SDS011;40758;54.038;11.684;2023-04-24T04:02:54;7.13;;;3.67;;
7295;SDS011;40758;54.038;11.684;2023-04-24T04:05:21;7.53;;;3.83;;
7295;SDS011;40758;54.038;11.684;2023-04-24T04:07:48;7.75;;;6.18;;
7295;SDS011;40758;54.038;11.684;2023-04-24T04:10:15;7.90;;;5.28;;
7295;SDS011;40758;54.038;11.684;2023-04-24T04:12:43;8.10;;;4.40;;
7295;SDS011;40758;54.038;11.684;2023-04-24T04:15:10;7.80;;;4.70;;
7295;SDS011;40758;54.038;11.684;2023-04-24T04:17:38;8.88;;;5.78;;
7295;SDS011;40758;54.038;11.684;2023-04-24T04:20:05;9.18;;;5.28;;
7295;SDS011;40758;54.038;11.684;2023-04-24T04:22:38;8.90;;;6.03;;
7295;SDS011;40758;54.038;11.684;2023-04-24T04:25:07;10.32;;;5.05;;
7295;SDS011;40758;54.038;11.684;2023-04-24T04:27:34;10.07;;;4.95;;
7295;SDS011;40758;54.038;11.684;2023-04-24T04:30:01;9.52;;;6.07;;
7295;SDS011;40758;54.038;11.684;2023-04-24T04:32:34;8.25;;;4.97;;
7295;SDS011;40758;54.038;11.684;2023-04-24T04:35:01;9.82;;;4.82;;
7295;SDS011;40758;54.038;11.684;2023-04-24T04:37:32;8.35;;;4.78;;
7295;SDS011;40758;54.038;11.684;2023-04-24T04:39:59;9.57;;;4.95;;
7295;SDS011;40758;54.038;11.684;2023-04-24T04:42:26;7.95;;;3.97;;
7295;SDS011;40758;54.038;11.684;2023-04-24T04:44:54;9.57;;;4.97;;
7295;SDS011;40758;54.038;11.684;2023-04-24T04:47:23;8.75;;;4.57;;
7295;SDS011;40758;54.038;11.684;2023-04-24T04:49:50;7.95;;;5.25;;
7295;SDS011;40758;54.038;11.684;2023-04-24T04:52:18;8.38;;;4.43;;
7295;SDS011;40758;54.038;11.684;2023-04-24T04:57:13;8.90;;;4.53;;
7295;SDS011;40758;54.038;11.684;2023-04-24T04:59:40;9.25;;;4.63;;
7295;SDS011;40758;54.038;11.684;2023-04-24T05:02:09;9.75;;;5.20;;
7295;SDS011;40758;54.038;11.684;2023-04-24T05:04:36;8.18;;;5.38;;
7295;SDS011;40758;54.038;11.684;2023-04-24T05:07:03;8.75;;;6.55;;
7295;SDS011;40758;54.038;11.684;2023-04-24T05:09:29;9.70;;;4.85;;
7295;SDS011;40758;54.038;11.684;2023-04-24T05:11:57;8.27;;;4.55;;
7295;SDS011;40758;54.038;11.684;2023-04-24T05:14:24;8.35;;;4.43;;
7295;SDS011;40758;54.038;11.684;2023-04-24T05:16:51;7.22;;;4.47;;
7295;SDS011;40758;54.038;11.684;2023-04-24T05:19:18;7.90;;;3.80;;
7295;SDS011;40758;54.038;11.684;2023-04-24T05:21:46;9.98;;;4.50;;
7295;SDS011;40758;54.038;11.684;2023-04-24T05:24:13;9.18;;;4.38;;
7295;SDS011;40758;54.038;11.684;2023-04-24T05:26:40;5.78;;;3.10;;
7295;SDS011;40758;54.038;11.684;2023-04-24T05:29:06;7.32;;;4.65;;
7295;SDS011;40758;54.038;11.684;2023-04-24T05:31:33;7.68;;;3.75;;
7295;SDS011;40758;54.038;11.684;2023-04-24T05:34:00;6.07;;;3.63;;
7295;SDS011;40758;54.038;11.684;2023-04-24T05:36:27;4.68;;;2.88;;
7295;SDS011;40758;54.038;11.684;2023-04-24T05:38:54;6.13;;;3.53;;
7295;SDS011;40758;54.038;11.684;2023-04-24T05:41:20;7.10;;;3.55;;
7295;SDS011;40758;54.038;11.684;2023-04-24T05:43:48;5.47;;;3.28;;
7295;SDS011;40758;54.038;11.684;2023-04-24T05:46:18;6.88;;;6.28;;
7295;SDS011;40758;54.038;11.684;2023-04-24T05:48:50;7.68;;;3.58;;
7295;SDS011;40758;54.038;11.684;2023-04-24T05:51:23;5.78;;;3.67;;
7295;SDS011;40758;54.038;11.684;2023-04-24T05:53:50;5.28;;;3.53;;
7295;SDS011;40758;54.038;11.684;2023-04-24T05:56:18;4.97;;;3.10;;
7295;SDS011;40758;54.038;11.684;2023-04-24T05:58:47;4.72;;;3.40;;
7295;SDS011;40758;54.038;11.684;2023-04-24T06:01:16;4.97;;;3.05;;
7295;SDS011;40758;54.038;11.684;2023-04-24T06:03:46;4.65;;;3.20;;
7295;SDS011;40758;54.038;11.684;2023-04-24T06:06:12;3.60;;;2.38;;
7295;SDS011;40758;54.038;11.684;2023-04-24T06:08:40;4.57;;;4.18;;
7295;SDS011;40758;54.038;11.684;2023-04-24T06:11:08;5.05;;;2.38;;
7295;SDS011;40758;54.038;11.684;2023-04-24T06:13:35;3.35;;;2.35;;
7295;SDS011;40758;54.038;11.684;2023-04-24T06:16:02;3.75;;;1.98;;
7295;SDS011;40758;54.038;11.684;2023-04-24T06:18:28;3.50;;;1.92;;
7295;SDS011;40758;54.038;11.684;2023-04-24T06:20:55;4.00;;;1.80;;
7295;SDS011;40758;54.038;11.684;2023-04-24T06:23:22;3.67;;;2.58;;
7295;SDS011;40758;54.038;11.684;2023-04-24T06:25:49;4.35;;;2.00;;
7295;SDS011;40758;54.038;11.684;2023-04-24T06:28:20;3.58;;;1.73;;
7295;SDS011;40758;54.038;11.684;2023-04-24T06:30:46;2.90;;;1.70;;
7295;SDS011;40758;54.038;11.684;2023-04-24T06:33:13;2.83;;;1.52;;
7295;SDS011;40758;54.038;11.684;2023-04-24T06:35:47;2.95;;;1.05;;
7295;SDS011;40758;54.038;11.684;2023-04-24T06:38:14;3.10;;;1.40;;
7295;SDS011;40758;54.038;11.684;2023-04-24T06:40:49;3.67;;;1.98;;
7295;SDS011;40758;54.038;11.684;2023-04-24T06:43:19;3.08;;;1.20;;
7295;SDS011;40758;54.038;11.684;2023-04-24T06:45:46;3.53;;;1.70;;
7295;SDS011;40758;54.038;11.684;2023-04-24T06:48:13;2.58;;;1.60;;
7295;SDS011;40758;54.038;11.684;2023-04-24T06:50:40;2.38;;;1.10;;
7295;SDS011;40758;54.038;11.684;2023-04-24T06:53:07;3.45;;;1.10;;
7295;SDS011;40758;54.038;11.684;2023-04-24T06:55:35;4.28;;;1.63;;
7295;SDS011;40758;54.038;11.684;2023-04-24T06:58:02;3.00;;;1.35;;
7295;SDS011;40758;54.038;11.684;2023-04-24T07:00:29;3.13;;;1.58;;
7295;SDS011;40758;54.038;11.684;2023-04-24T07:02:56;3.85;;;1.52;;
7295;SDS011;40758;54.038;11.684;2023-04-24T07:05:24;2.92;;;1.75;;
7295;SDS011;40758;54.038;11.684;2023-04-24T07:07:50;2.78;;;1.35;;
7295;SDS011;40758;54.038;11.684;2023-04-24T07:10:17;3.20;;;1.20;;
7295;SDS011;40758;54.038;11.684;2023-04-24T07:12:45;3.40;;;1.70;;
7295;SDS011;40758;54.038;11.684;2023-04-24T07:15:13;4.50;;;1.80;;
7295;SDS011;40758;54.038;11.684;2023-04-24T07:17:39;2.53;;;1.42;;
7295;SDS011;40758;54.038;11.684;2023-04-24T07:20:10;2.72;;;1.50;;
7295;SDS011;40758;54.038;11.684;2023-04-24T07:22:37;2.75;;;1.63;;
7295;SDS011;40758;54.038;11.684;2023-04-24T07:25:05;2.75;;;1.60;;
7295;SDS011;40758;54.038;11.684;2023-04-24T07:27:34;3.88;;;1.60;;
7295;SDS011;40758;54.038;11.684;2023-04-24T07:30:05;2.45;;;1.13;;
7295;SDS011;40758;54.038;11.684;2023-04-24T07:32:33;3.08;;;2.20;;
7295;SDS011;40758;54.038;11.684;2023-04-24T07:34:59;3.13;;;1.98;;
7295;SDS011;40758;54.038;11.684;2023-04-24T07:37:26;2.40;;;1.52;;
7295;SDS011;40758;54.038;11.684;2023-04-24T07:39:54;2.97;;;1.27;;
7295;SDS011;40758;54.038;11.684;2023-04-24T07:42:23;2.30;;;1.27;;
7295;SDS011;40758;54.038;11.684;2023-04-24T07:44:51;2.13;;;0.68;;
7295;SDS011;40758;54.038;11.684;2023-04-24T07:47:18;3.33;;;1.67;;
7295;SDS011;40758;54.038;11.684;2023-04-24T07:49:47;2.42;;;1.33;;
7295;SDS011;40758;54.038;11.684;2023-04-24T07:52:13;2.60;;;1.05;;
7295;SDS011;40758;54.038;11.684;2023-04-24T07:54:40;2.63;;;1.70;;
7295;SDS011;40758;54.038;11.684;2023-04-24T07:57:07;2.50;;;1.27;;
7295;SDS011;40758;54.038;11.684;2023-04-24T07:59:34;2.08;;;0.73;;
7295;SDS011;40758;54.038;11.684;2023-04-24T08:02:01;2.03;;;1.80;;
7295;SDS011;40758;54.038;11.684;2023-04-24T08:04:28;2.28;;;1.73;;
7295;SDS011;40758;54.038;11.684;2023-04-24T08:06:54;2.75;;;1.40;;
7295;SDS011;40758;54.038;11.684;2023-04-24T08:09:21;2.22;;;1.75;;
7295;SDS011;40758;54.038;11.684;2023-04-24T08:11:48;2.28;;;1.73;;
7295;SDS011;40758;54.038;11.684;2023-04-24T08:14:15;3.60;;;1.83;;
7295;SDS011;40758;54.038;11.684;2023-04-24T08:16:42;3.28;;;2.10;;
7295;SDS011;40758;54.038;11.684;2023-04-24T08:19:09;3.08;;;1.10;;
7295;SDS011;40758;54.038;11.684;2023-04-24T08:21:36;2.22;;;1.05;;
7295;SDS011;40758;54.038;11.684;2023-04-24T08:24:03;2.85;;;1.40;;
7295;SDS011;40758;54.038;11.684;2023-04-24T08:26:33;2.35;;;1.42;;
7295;SDS011;40758;54.038;11.684;2023-04-24T08:29:00;1.73;;;1.17;;
7295;SDS011;40758;54.038;11.684;2023-04-24T08:31:27;2.72;;;1.30;;
7295;SDS011;40758;54.038;11.684;2023-04-24T08:33:53;2.53;;;1.85;;
7295;SDS011;40758;54.038;11.684;2023-04-24T08:36:20;2.60;;;1.55;;
7295;SDS011;40758;54.038;11.684;2023-04-24T08:38:55;2.80;;;1.35;;
7295;SDS011;40758;54.038;11.684;2023-04-24T08:41:22;2.95;;;1.95;;
7295;SDS011;40758;54.038;11.684;2023-04-24T08:43:52;2.42;;;1.85;;
7295;SDS011;40758;54.038;11.684;2023-04-24T08:46:22;2.55;;;1.70;;
7295;SDS011;40758;54.038;11.684;2023-04-24T08:48:52;2.30;;;1.00;;
7295;SDS011;40758;54.038;11.684;2023-04-24T08:51:19;3.78;;;3.47;;
7295;SDS011;40758;54.038;11.684;2023-04-24T08:53:46;3.55;;;3.25;;
7295;SDS011;40758;54.038;11.684;2023-04-24T08:56:15;1.95;;;0.93;;
7295;SDS011;40758;54.038;11.684;2023-04-24T08:58:43;2.10;;;0.80;;
7295;SDS011;40758;54.038;11.684;2023-04-24T09:01:10;4.80;;;4.43;;
7295;SDS011;40758;54.038;11.684;2023-04-24T09:03:38;2.15;;;0.43;;
7295;SDS011;40758;54.038;11.684;2023-04-24T09:06:05;2.03;;;0.82;;
7295;SDS011;40758;54.038;11.684;2023-04-24T09:08:34;1.85;;;1.00;;
7295;SDS011;40758;54.038;11.684;2023-04-24T09:11:01;2.20;;;0.88;;
7295;SDS011;40758;54.038;11.684;2023-04-24T09:13:29;2.30;;;1.23;;
7295;SDS011;40758;54.038;11.684;2023-04-24T09:15:58;2.50;;;1.17;;
7295;SDS011;40758;54.038;11.684;2023-04-24T09:18:26;2.03;;;1.10;;
7295;SDS011;40758;54.038;11.684;2023-04-24T09:21:00;3.33;;;0.90;;
7295;SDS011;40758;54.038;11.684;2023-04-24T09:23:33;2.53;;;1.20;;
7295;SDS011;40758;54.038;11.684;2023-04-24T09:26:01;3.08;;;0.95;;
7295;SDS011;40758;54.038;11.684;2023-04-24T09:31:09;2.03;;;1.05;;
7295;SDS011;40758;54.038;11.684;2023-04-24T09:33:39;2.25;;;1.10;;
7295;SDS011;40758;54.038;11.684;2023-04-24T09:36:06;2.33;;;1.33;;
7295;SDS011;40758;54.038;11.684;2023-04-24T09:38:33;2.42;;;0.52;;
7295;SDS011;40758;54.038;11.684;2023-04-24T09:41:04;1.85;;;0.70;;
7295;SDS011;40758;54.038;11.684;2023-04-24T09:43:35;2.55;;;1.02;;
7295;SDS011;40758;54.038;11.684;2023-04-24T09:46:06;2.88;;;1.33;;
7295;SDS011;40758;54.038;11.684;2023-04-24T09:48:35;2.60;;;0.80;;
7295;SDS011;40758;54.038;11.684;2023-04-24T09:51:04;2.38;;;1.13;;
7295;SDS011;40758;54.038;11.684;2023-04-24T09:53:33;2.00;;;1.52;;
7295;SDS011;40758;54.038;11.684;2023-04-24T09:56:06;2.97;;;1.17;;
7295;SDS011;40758;54.038;11.684;2023-04-24T09:58:35;1.85;;;0.93;;
7295;SDS011;40758;54.038;11.684;2023-04-24T10:01:02;2.50;;;0.93;;
7295;SDS011;40758;54.038;11.684;2023-04-24T10:03:30;1.83;;;1.17;;
7295;SDS011;40758;54.038;11.684;2023-04-24T10:05:58;2.42;;;1.45;;
7295;SDS011;40758;54.038;11.684;2023-04-24T10:08:35;2.10;;;1.17;;
7295;SDS011;40758;54.038;11.684;2023-04-24T10:11:03;2.63;;;0.68;;
7295;SDS011;40758;54.038;11.684;2023-04-24T10:13:32;2.53;;;0.80;;
7295;SDS011;40758;54.038;11.684;2023-04-24T10:15:59;2.10;;;1.13;;
7295;SDS011;40758;54.038;11.684;2023-04-24T10:18:27;2.08;;;1.08;;
7295;SDS011;40758;54.038;11.684;2023-04-24T10:20:55;3.42;;;1.20;;
7295;SDS011;40758;54.038;11.684;2023-04-24T10:23:23;2.28;;;1.30;;
7295;SDS011;40758;54.038;11.684;2023-04-24T10:25:53;2.00;;;0.73;;
7295;SDS011;40758;54.038;11.684;2023-04-24T10:28:21;1.85;;;1.38;;
7295;SDS011;40758;54.038;11.684;2023-04-24T10:30:48;3.00;;;2.72;;
7295;SDS011;40758;54.038;11.684;2023-04-24T10:33:21;2.72;;;0.80;;
7295;SDS011;40758;54.038;11.684;2023-04-24T10:35:52;2.40;;;0.80;;
7295;SDS011;40758;54.038;11.684;2023-04-24T10:38:24;2.53;;;1.38;;
7295;SDS011;40758;54.038;11.684;2023-04-24T10:41:13;3.55;;;0.60;;
7295;SDS011;40758;54.038;11.684;2023-04-24T10:43:47;2.35;;;1.33;;
7295;SDS011;40758;54.038;11.684;2023-04-24T10:46:19;2.45;;;0.70;;
7295;SDS011;40758;54.038;11.684;2023-04-24T10:48:54;3.58;;;1.27;;
7295;SDS011;40758;54.038;11.684;2023-04-24T10:51:26;1.75;;;0.85;;
7295;SDS011;40758;54.038;11.684;2023-04-24T10:59:47;2.95;;;1.27;;
7295;SDS011;40758;54.038;11.684;2023-04-24T11:02:17;2.17;;;0.98;;
7295;SDS011;40758;54.038;11.684;2023-04-24T11:04:45;2.20;;;1.13;;
7295;SDS011;40758;54.038;11.684;2023-04-24T11:07:12;2.50;;;1.25;;
7295;SDS011;40758;54.038;11.684;2023-04-24T11:09:39;2.53;;;1.00;;
7295;SDS011;40758;54.038;11.684;2023-04-24T11:12:10;2.63;;;1.05;;
7295;SDS011;40758;54.038;11.684;2023-04-24T11:17:28;2.05;;;0.73;;
7295;SDS011;40758;54.038;11.684;2023-04-24T11:20:03;1.88;;;0.70;;
7295;SDS011;40758;54.038;11.684;2023-04-24T11:25:21;2.83;;;1.45;;
7295;SDS011;40758;54.038;11.684;2023-04-24T11:28:02;1.83;;;0.70;;
7295;SDS011;40758;54.038;11.684;2023-04-24T11:30:31;2.03;;;0.80;;
7295;SDS011;40758;54.038;11.684;2023-04-24T11:33:03;2.28;;;0.82;;
7295;SDS011;40758;54.038;11.684;2023-04-24T11:35:34;3.13;;;0.80;;
7295;SDS011;40758;54.038;11.684;2023-04-24T11:38:05;1.80;;;0.63;;
7295;SDS011;40758;54.038;11.684;2023-04-24T11:40:52;1.83;;;1.00;;
7295;SDS011;40758;54.038;11.684;2023-04-24T11:43:20;2.05;;;1.30;;
7295;SDS011;40758;54.038;11.684;2023-04-24T11:45:48;1.55;;;0.80;;
7295;SDS011;40758;54.038;11.684;2023-04-24T11:48:19;1.80;;;0.80;;
7295;SDS011;40758;54.038;11.684;2023-04-24T11:50:49;1.95;;;1.13;;
7295;SDS011;40758;54.038;11.684;2023-04-24T11:53:19;2.72;;;0.93;;
7295;SDS011;40758;54.038;11.684;2023-04-24T11:55:47;2.55;;;1.25;;
7295;SDS011;40758;54.038;11.684;2023-04-24T11:58:14;2.50;;;0.95;;
7295;SDS011;40758;54.038;11.684;2023-04-24T12:00:41;2.22;;;1.23;;
7295;SDS011;40758;54.038;11.684;2023-04-24T12:03:08;1.90;;;0.73;;
7295;SDS011;40758;54.038;11.684;2023-04-24T12:05:37;2.00;;;0.90;;
7295;SDS011;40758;54.038;11.684;2023-04-24T12:08:05;2.60;;;1.17;;
7295;SDS011;40758;54.038;11.684;2023-04-24T12:10:33;1.95;;;0.75;;
7295;SDS011;40758;54.038;11.684;2023-04-24T12:13:01;2.75;;;1.13;;
7295;SDS011;40758;54.038;11.684;2023-04-24T12:15:28;2.63;;;1.33;;
7295;SDS011;40758;54.038;11.684;2023-04-24T12:17:55;2.45;;;0.70;;
7295;SDS011;40758;54.038;11.684;2023-04-24T12:20:29;2.63;;;1.00;;
7295;SDS011;40758;54.038;11.684;2023-04-24T12:22:58;2.67;;;0.90;;
7295;SDS011;40758;54.038;11.684;2023-04-24T12:25:30;2.17;;;0.98;;
7295;SDS011;40758;54.038;11.684;2023-04-24T12:30:32;2.13;;;1.25;;
7295;SDS011;40758;54.038;11.684;2023-04-24T12:33:06;2.75;;;1.05;;
7295;SDS011;40758;54.038;11.684;2023-04-24T12:35:33;3.30;;;3.08;;
7295;SDS011;40758;54.038;11.684;2023-04-24T12:38:09;2.92;;;1.35;;
7295;SDS011;40758;54.038;11.684;2023-04-24T12:40:39;2.40;;;1.05;;
7295;SDS011;40758;54.038;11.684;2023-04-24T12:45:42;3.60;;;3.30;;
7295;SDS011;40758;54.038;11.684;2023-04-24T12:48:08;2.67;;;1.50;;
7295;SDS011;40758;54.038;11.684;2023-04-24T12:50:36;3.47;;;1.45;;
7295;SDS011;40758;54.038;11.684;2023-04-24T12:53:04;2.47;;;1.52;;
7295;SDS011;40758;54.038;11.684;2023-04-24T12:55:32;6.55;;;1.55;;
7295;SDS011;40758;54.038;11.684;2023-04-24T12:57:59;3.33;;;2.30;;
7295;SDS011;40758;54.038;11.684;2023-04-24T13:00:26;3.22;;;1.48;;
7295;SDS011;40758;54.038;11.684;2023-04-24T13:02:52;5.20;;;2.38;;
7295;SDS011;40758;54.038;11.684;2023-04-24T13:05:19;3.13;;;1.95;;
7295;SDS011;40758;54.038;11.684;2023-04-24T13:07:50;3.35;;;1.50;;
7295;SDS011;40758;54.038;11.684;2023-04-24T13:10:22;3.13;;;1.73;;
7295;SDS011;40758;54.038;11.684;2023-04-24T13:12:52;4.10;;;2.10;;
7295;SDS011;40758;54.038;11.684;2023-04-24T13:15:22;3.80;;;2.65;;
7295;SDS011;40758;54.038;11.684;2023-04-24T13:17:52;3.95;;;2.28;;
7295;SDS011;40758;54.038;11.684;2023-04-24T13:20:18;3.75;;;2.10;;
7295;SDS011;40758;54.038;11.684;2023-04-24T13:22:47;4.20;;;2.33;;
7295;SDS011;40758;54.038;11.684;2023-04-24T13:25:16;4.13;;;2.10;;
7295;SDS011;40758;54.038;11.684;2023-04-24T13:27:45;4.72;;;2.63;;
7295;SDS011;40758;54.038;11.684;2023-04-24T13:30:11;4.45;;;3.03;;
7295;SDS011;40758;54.038;11.684;2023-04-24T13:32:38;4.20;;;2.78;;
7295;SDS011;40758;54.038;11.684;2023-04-24T13:35:05;4.65;;;2.25;;
7295;SDS011;40758;54.038;11.684;2023-04-24T13:37:33;4.68;;;2.50;;
7295;SDS011;40758;54.038;11.684;2023-04-24T13:40:02;4.40;;;2.55;;
7295;SDS011;40758;54.038;11.684;2023-04-24T13:42:32;4.13;;;2.47;;
7295;SDS011;40758;54.038;11.684;2023-04-24T13:44:59;4.80;;;2.83;;
7295;SDS011;40758;54.038;11.684;2023-04-24T13:47:36;5.82;;;2.50;;
7295;SDS011;40758;54.038;11.684;2023-04-24T13:50:04;5.45;;;2.90;;
7295;SDS011;40758;54.038;11.684;2023-04-24T13:52:31;6.28;;;2.40;;
7295;SDS011;40758;54.038;11.684;2023-04-24T13:54:58;5.82;;;2.58;;
7295;SDS011;40758;54.038;11.684;2023-04-24T13:57:25;3.80;;;2.20;;
7295;SDS011;40758;54.038;11.684;2023-04-24T13:59:51;4.93;;;1.70;;
7295;SDS011;40758;54.038;11.684;2023-04-24T14:02:18;4.78;;;1.80;;
7295;SDS011;40758;54.038;11.684;2023-04-24T14:04:47;4.22;;;1.95;;
7295;SDS011;40758;54.038;11.684;2023-04-24T14:07:17;4.15;;;2.47;;
7295;SDS011;40758;54.038;11.684;2023-04-24T14:09:43;4.25;;;1.63;;
7295;SDS011;40758;54.038;11.684;2023-04-24T14:12:10;4.35;;;2.45;;
7295;SDS011;40758;54.038;11.684;2023-04-24T14:14:37;5.47;;;2.30;;
7295;SDS011;40758;54.038;11.684;2023-04-24T14:17:03;4.55;;;1.83;;
7295;SDS011;40758;54.038;11.684;2023-04-24T14:19:31;4.03;;;1.63;;
7295;SDS011;40758;54.038;11.684;2023-04-24T14:21:57;4.22;;;2.10;;
7295;SDS011;40758;54.038;11.684;2023-04-24T14:24:24;4.25;;;2.30;;
7295;SDS011;40758;54.038;11.684;2023-04-24T14:26:51;4.05;;;1.73;;
7295;SDS011;40758;54.038;11.684;2023-04-24T14:29:18;4.10;;;2.10;;
7295;SDS011;40758;54.038;11.684;2023-04-24T14:31:46;4.72;;;2.83;;
7295;SDS011;40758;54.038;11.684;2023-04-24T14:34:13;3.58;;;2.58;;
7295;SDS011;40758;54.038;11.684;2023-04-24T14:36:40;3.33;;;1.55;;
7295;SDS011;40758;54.038;11.684;2023-04-24T14:39:06;3.10;;;2.13;;
7295;SDS011;40758;54.038;11.684;2023-04-24T14:41:33;4.05;;;1.98;;
7295;SDS011;40758;54.038;11.684;2023-04-24T14:44:03;2.95;;;1.55;;
7295;SDS011;40758;54.038;11.684;2023-04-24T14:46:32;4.72;;;2.05;;
7295;SDS011;40758;54.038;11.684;2023-04-24T14:48:58;3.92;;;1.75;;
7295;SDS011;40758;54.038;11.684;2023-04-24T14:51:25;3.30;;;1.65;;
7295;SDS011;40758;54.038;11.684;2023-04-24T14:53:53;2.83;;;1.52;;
7295;SDS011;40758;54.038;11.684;2023-04-24T14:56:23;3.75;;;2.35;;
7295;SDS011;40758;54.038;11.684;2023-04-24T14:58:52;3.40;;;1.60;;
7295;SDS011;40758;54.038;11.684;2023-04-24T15:01:22;3.53;;;1.77;;
7295;SDS011;40758;54.038;11.684;2023-04-24T15:03:53;4.07;;;2.13;;
7295;SDS011;40758;54.038;11.684;2023-04-24T15:06:20;4.10;;;2.55;;
7295;SDS011;40758;54.038;11.684;2023-04-24T15:08:47;3.92;;;2.35;;
7295;SDS011;40758;54.038;11.684;2023-04-24T15:11:18;3.25;;;1.90;;
7295;SDS011;40758;54.038;11.684;2023-04-24T15:13:47;3.28;;;1.70;;
7295;SDS011;40758;54.038;11.684;2023-04-24T15:16:14;4.22;;;1.50;;
7295;SDS011;40758;54.038;11.684;2023-04-24T15:18:42;3.17;;;1.20;;
7295;SDS011;40758;54.038;11.684;2023-04-24T15:21:08;2.90;;;1.88;;